Time;durP1;ratioP1;P1;durP2;ratioP2;P2;SDS_P1;SDS_P2;PMS_P1;PMS_P2;Temp;Humidity;BMP_temperature;BMP_pressure;BME280_temperature;BME280_humidity;BME280_pressure;Samples;Min_cycle;Max_cycle;Signal;HPM_P1;HPM_P2
2024/03/28 00:01:01;;;;;;;9.00;1.90;;;28.50;36.90;;;;;;5007225;28;20077;-45
2024/03/28 00:03:28;;;;;;;11.15;2.15;;;28.60;37.30;;;;;;5006391;28;20089;-46
2024/03/28 00:05:58;;;;;;;4.57;1.70;;;28.80;37.00;;;;;;5007008;28;20066;-46
2024/03/28 00:08:25;;;;;;;9.27;2.00;;;28.80;37.20;;;;;;5004813;28;20097;-54
2024/03/28 00:10:53;;;;;;;12.07;2.22;;;28.90;37.40;;;;;;5006357;28;20863;-44
2024/03/28 00:13:20;;;;;;;7.53;2.10;;;28.90;37.40;;;;;;5005201;28;20144;-49
2024/03/28 00:15:57;;;;;;;10.23;2.30;;;28.80;38.00;;;;;;5006480;28;20070;-55
2024/03/28 00:18:24;;;;;;;12.35;1.58;;;28.60;38.40;;;;;;4990514;28;20381;-47
2024/03/28 00:20:56;;;;;;;4.93;1.73;;;28.50;37.30;;;;;;5003211;28;20532;-49
2024/03/28 00:23:23;;;;;;;16.40;1.88;;;28.20;37.50;;;;;;5003030;28;20066;-52
2024/03/28 00:25:58;;;;;;;6.80;2.28;;;28.00;37.90;;;;;;5006886;28;20070;-50
2024/03/28 00:28:25;;;;;;;10.60;2.47;;;27.90;37.60;;;;;;5007275;28;20078;-44
2024/03/28 00:30:52;;;;;;;10.27;2.15;;;27.90;37.60;;;;;;4971853;28;20574;-47
2024/03/28 00:33:20;;;;;;;10.18;1.95;;;27.80;37.70;;;;;;5005782;28;20142;-51
2024/03/28 00:35:48;;;;;;;10.73;1.58;;;27.60;37.60;;;;;;5007132;28;20089;-50
2024/03/28 00:38:16;;;;;;;16.38;2.15;;;27.50;37.70;;;;;;5006137;28;20114;-49
2024/03/28 00:40:50;;;;;;;10.48;2.13;;;27.40;37.50;;;;;;5006993;28;20075;-45
2024/03/28 00:43:17;;;;;;;8.77;2.03;;;27.20;37.60;;;;;;5006957;28;20081;-50
2024/03/28 00:45:44;;;;;;;9.25;2.17;;;27.20;37.70;;;;;;5006662;28;20070;-47
2024/03/28 00:48:11;;;;;;;6.70;2.25;;;27.20;37.70;;;;;;5007554;28;20074;-46
2024/03/28 00:50:38;;;;;;;9.15;1.70;;;27.10;37.40;;;;;;5006715;28;20085;-49
2024/03/28 00:53:04;;;;;;;27.52;2.55;;;27.00;37.30;;;;;;5008250;28;20105;-51
2024/03/28 00:55:33;;;;;;;7.82;2.05;;;26.90;37.60;;;;;;5007500;28;20161;-47
2024/03/28 00:57:59;;;;;;;9.50;1.90;;;26.80;37.40;;;;;;5007464;28;20093;-46
2024/03/28 01:00:26;;;;;;;8.32;1.83;;;26.70;37.50;;;;;;5006720;28;20139;-50
2024/03/28 01:02:52;;;;;;;11.35;1.90;;;26.70;37.60;;;;;;5008426;28;20073;-54
2024/03/28 01:05:20;;;;;;;10.23;2.03;;;26.60;37.30;;;;;;5007268;28;20076;-49
2024/03/28 01:07:46;;;;;;;11.82;2.17;;;26.50;37.50;;;;;;5006611;28;20954;-49
2024/03/28 01:10:13;;;;;;;12.63;2.30;;;26.40;37.70;;;;;;4989310;28;20074;-49
2024/03/28 01:12:39;;;;;;;15.10;1.90;;;26.30;37.50;;;;;;5006923;28;20514;-50
2024/03/28 01:15:06;;;;;;;16.95;2.60;;;26.30;37.80;;;;;;4992447;28;20078;-55
2024/03/28 01:17:32;;;;;;;6.93;2.05;;;26.30;37.70;;;;;;5008078;28;20423;-49
2024/03/28 01:19:59;;;;;;;19.50;2.45;;;26.20;37.90;;;;;;4992689;28;20208;-45
2024/03/28 01:22:25;;;;;;;14.85;2.17;;;26.20;37.90;;;;;;5011650;28;20078;-50
2024/03/28 01:24:51;;;;;;;19.88;2.33;;;26.10;38.20;;;;;;5010574;28;20070;-47
2024/03/28 01:27:18;;;;;;;14.63;2.83;;;25.90;38.40;;;;;;5010719;28;20070;-49
2024/03/28 01:29:45;;;;;;;13.00;2.75;;;25.90;38.80;;;;;;5011639;28;20070;-49
2024/03/28 01:32:11;;;;;;;33.75;3.05;;;25.80;38.90;;;;;;5009954;28;20083;-46
2024/03/28 01:34:37;;;;;;;24.00;3.13;;;25.70;39.40;;;;;;5010376;28;20578;-44
2024/03/28 01:37:04;;;;;;;18.67;2.33;;;25.60;39.70;;;;;;5011196;28;20082;-49
2024/03/28 01:39:30;;;;;;;24.55;3.25;;;25.50;40.20;;;;;;5010904;28;20095;-53
2024/03/28 01:41:57;;;;;;;15.35;2.38;;;25.40;40.20;;;;;;4993918;28;20291;-49
2024/03/28 01:44:24;;;;;;;24.17;3.00;;;25.30;40.30;;;;;;5009862;28;20585;-50
2024/03/28 01:46:51;;;;;;;24.10;2.90;;;25.20;40.60;;;;;;5010915;28;20398;-48
2024/03/28 01:49:18;;;;;;;20.05;2.70;;;25.20;41.00;;;;;;5011147;28;20201;-50
2024/03/28 01:51:45;;;;;;;23.25;3.40;;;25.10;41.60;;;;;;5010740;28;20066;-48
2024/03/28 01:54:13;;;;;;;14.23;2.92;;;25.00;42.10;;;;;;4993278;28;20079;-45
2024/03/28 01:56:42;;;;;;;19.08;2.50;;;24.90;42.30;;;;;;5011174;28;20073;-52
2024/03/28 01:59:11;;;;;;;23.38;2.92;;;24.80;42.50;;;;;;5011193;28;20165;-50
2024/03/28 02:01:41;;;;;;;26.33;2.47;;;24.70;42.70;;;;;;5009074;28;20070;-46
2024/03/28 02:04:07;;;;;;;30.40;2.47;;;24.70;43.10;;;;;;5010000;28;20071;-47
2024/03/28 02:06:37;;;;;;;18.42;2.05;;;24.50;43.50;;;;;;5010630;28;20105;-54
2024/03/28 02:09:08;;;;;;;23.60;3.05;;;24.50;44.30;;;;;;5006836;28;20071;-48
2024/03/28 02:11:35;;;;;;;20.38;2.67;;;24.40;44.60;;;;;;5011255;28;20066;-46
2024/03/28 02:14:01;;;;;;;27.05;3.40;;;24.30;44.90;;;;;;5008825;28;20066;-48
2024/03/28 02:16:28;;;;;;;25.88;3.42;;;24.20;45.40;;;;;;5010593;28;20070;-49
2024/03/28 02:18:58;;;;;;;26.45;3.58;;;24.20;43.70;;;;;;5009893;28;20114;-45
2024/03/28 02:21:24;;;;;;;26.83;3.35;;;24.10;43.30;;;;;;5009502;28;20136;-49
2024/03/28 02:23:51;;;;;;;22.65;3.42;;;24.00;42.30;;;;;;5010659;28;20070;-49
2024/03/28 02:26:22;;;;;;;21.63;3.22;;;24.00;42.00;;;;;;5010235;28;20117;-49
2024/03/28 02:28:50;;;;;;;16.30;2.90;;;23.90;41.40;;;;;;5009437;28;20594;-56
2024/03/28 02:31:16;;;;;;;18.02;2.97;;;23.90;41.00;;;;;;5010075;28;20125;-47
2024/03/28 02:33:43;;;;;;;27.35;3.35;;;23.80;40.50;;;;;;5009106;28;20075;-45
2024/03/28 02:36:09;;;;;;;27.35;3.17;;;23.80;40.60;;;;;;5010347;28;20432;-51
2024/03/28 02:38:36;;;;;;;22.27;3.25;;;23.70;40.70;;;;;;5010058;28;20106;-46
2024/03/28 02:41:03;;;;;;;26.92;3.20;;;23.70;40.60;;;;;;5009517;28;20077;-51
2024/03/28 02:43:30;;;;;;;32.83;3.60;;;23.70;40.40;;;;;;5009186;28;20078;-46
2024/03/28 02:45:57;;;;;;;22.60;3.38;;;23.70;40.60;;;;;;5008776;28;20074;-45
2024/03/28 02:48:23;;;;;;;26.23;3.88;;;23.50;40.30;;;;;;4990877;28;20520;-49
2024/03/28 02:50:50;;;;;;;19.95;2.95;;;23.50;40.70;;;;;;5007507;28;20516;-47
2024/03/28 02:53:17;;;;;;;32.50;3.58;;;23.50;40.50;;;;;;5007876;28;20078;-48
2024/03/28 02:55:43;;;;;;;29.38;3.15;;;23.40;40.60;;;;;;4991240;28;20105;-47
2024/03/28 02:58:10;;;;;;;29.40;3.33;;;23.30;40.80;;;;;;5009705;28;20117;-47
2024/03/28 03:00:37;;;;;;;29.55;2.92;;;23.30;41.10;;;;;;5007121;28;20082;-49
2024/03/28 03:03:03;;;;;;;22.63;3.05;;;23.20;41.40;;;;;;5005395;28;20082;-51
2024/03/28 03:05:30;;;;;;;22.80;3.08;;;23.20;42.50;;;;;;4984677;28;20070;-52
2024/03/28 03:07:56;;;;;;;20.30;3.08;;;23.10;42.90;;;;;;5004729;28;20074;-48
2024/03/28 03:10:23;;;;;;;24.05;2.67;;;23.10;43.70;;;;;;5005688;28;20154;-48
2024/03/28 03:12:49;;;;;;;22.83;2.50;;;23.00;44.00;;;;;;5006668;28;20101;-50
2024/03/28 03:15:15;;;;;;;20.58;2.67;;;22.90;44.40;;;;;;5006122;28;20071;-47
2024/03/28 03:17:42;;;;;;;19.33;3.25;;;22.90;45.00;;;;;;5004728;28;20141;-51
2024/03/28 03:20:13;;;;;;;21.20;3.15;;;22.80;45.60;;;;;;5006510;28;20146;-48
2024/03/28 03:22:48;;;;;;;25.25;3.22;;;22.70;46.20;;;;;;4987791;28;20487;-53
2024/03/28 03:25:25;;;;;;;28.48;3.15;;;22.60;46.90;;;;;;5007094;28;20161;-49
2024/03/28 03:36:10;;;;;;;30.67;4.03;;;22.40;48.80;;;;;;5006742;28;20151;-52
2024/03/28 03:38:37;;;;;;;42.70;4.57;;;22.30;49.20;;;;;;5005942;28;20128;-56
2024/03/28 03:41:03;;;;;;;28.70;4.38;;;22.20;49.60;;;;;;5006801;28;20122;-52
2024/03/28 03:43:30;;;;;;;27.45;3.90;;;22.20;49.90;;;;;;5006104;28;20071;-47
2024/03/28 03:45:57;;;;;;;40.55;4.55;;;22.10;50.20;;;;;;5006448;28;20094;-47
2024/03/28 03:48:23;;;;;;;48.42;5.50;;;22.10;50.40;;;;;;5005425;28;20074;-52
2024/03/28 03:50:56;;;;;;;61.05;5.00;;;22.00;50.70;;;;;;5006436;28;20161;-54
2024/03/28 03:53:23;;;;;;;46.10;4.35;;;22.00;50.90;;;;;;5005837;28;20177;-47
2024/03/28 03:55:54;;;;;;;30.80;4.93;;;21.90;51.20;;;;;;5005428;28;20732;-49
2024/03/28 03:58:20;;;;;;;28.75;3.42;;;21.90;51.40;;;;;;5005269;28;20169;-51
2024/03/28 04:00:47;;;;;;;40.25;5.55;;;21.90;51.60;;;;;;5004353;28;20078;-49
2024/03/28 04:03:14;;;;;;;30.42;4.57;;;21.80;51.60;;;;;;5004701;28;20508;-52
2024/03/28 04:05:40;;;;;;;20.85;3.55;;;21.80;51.80;;;;;;5003350;28;20105;-49
2024/03/28 04:08:07;;;;;;;22.92;4.10;;;21.80;52.00;;;;;;4985414;28;20067;-47
2024/03/28 04:10:33;;;;;;;18.95;4.28;;;21.70;52.30;;;;;;4988215;28;20547;-49
2024/03/28 04:13:00;;;;;;;31.75;5.22;;;21.70;52.60;;;;;;5003976;28;20078;-51
2024/03/28 04:15:26;;;;;;;34.30;6.30;;;21.70;53.00;;;;;;5005133;28;20090;-51
2024/03/28 04:17:53;;;;;;;27.92;5.80;;;21.70;53.40;;;;;;5005631;28;20509;-47
2024/03/28 04:20:19;;;;;;;28.17;6.05;;;21.60;53.60;;;;;;5004584;28;20116;-48
2024/03/28 04:22:46;;;;;;;26.55;6.75;;;21.60;53.80;;;;;;5005326;28;20494;-48
2024/03/28 04:25:12;;;;;;;23.70;8.20;;;21.60;54.00;;;;;;5004516;28;20092;-46
2024/03/28 04:27:39;;;;;;;35.75;9.93;;;21.60;54.20;;;;;;5003541;28;20169;-48
2024/03/28 04:30:07;;;;;;;32.95;9.98;;;21.50;54.40;;;;;;5005549;28;20086;-46
2024/03/28 04:32:33;;;;;;;27.05;9.80;;;21.50;54.70;;;;;;5005615;28;20144;-45
2024/03/28 04:35:00;;;;;;;30.10;9.07;;;21.40;55.00;;;;;;5004000;28;20135;-50
2024/03/28 04:37:26;;;;;;;28.92;9.50;;;21.40;55.30;;;;;;4984897;28;20074;-49
2024/03/28 04:39:53;;;;;;;33.08;10.02;;;21.40;55.60;;;;;;5000561;28;20114;-47
2024/03/28 04:42:19;;;;;;;25.95;9.30;;;21.30;55.90;;;;;;5003689;28;20078;-48
2024/03/28 04:44:46;;;;;;;36.10;10.10;;;21.30;56.30;;;;;;5003613;28;20164;-51
2024/03/28 04:47:14;;;;;;;29.23;9.70;;;21.20;56.60;;;;;;5003820;28;20432;-47
2024/03/28 04:49:42;;;;;;;34.22;10.30;;;21.20;56.90;;;;;;5002216;28;20093;-51
2024/03/28 04:52:09;;;;;;;27.77;11.35;;;21.10;57.20;;;;;;5005555;28;20515;-52
2024/03/28 04:54:35;;;;;;;44.67;12.35;;;21.10;57.60;;;;;;5004032;28;20082;-53
2024/03/28 04:57:02;;;;;;;41.15;15.95;;;21.00;57.60;;;;;;5003782;28;20172;-47
2024/03/28 04:59:28;;;;;;;52.80;16.40;;;21.00;57.70;;;;;;4988085;28;20105;-57
2024/03/28 05:01:55;;;;;;;45.97;13.90;;;20.90;57.80;;;;;;5005679;28;20137;-48
2024/03/28 05:04:22;;;;;;;40.08;12.68;;;20.90;57.90;;;;;;5003769;28;20094;-53
2024/03/28 05:06:49;;;;;;;34.72;10.95;;;20.90;58.10;;;;;;5004801;28;20093;-51
2024/03/28 05:09:15;;;;;;;27.90;9.82;;;20.90;58.20;;;;;;5001278;28;20071;-51
2024/03/28 05:11:41;;;;;;;26.10;8.43;;;20.80;58.20;;;;;;5004524;28;20086;-50
2024/03/28 05:14:09;;;;;;;29.85;6.93;;;20.80;58.40;;;;;;5001127;28;20551;-49
2024/03/28 05:16:35;;;;;;;22.40;6.35;;;20.70;58.50;;;;;;5005425;28;20105;-47
2024/03/28 05:19:02;;;;;;;23.25;5.32;;;20.70;58.70;;;;;;5004884;28;21083;-52
2024/03/28 05:21:28;;;;;;;25.38;5.57;;;20.70;58.70;;;;;;5005412;28;20077;-45
2024/03/28 05:23:54;;;;;;;23.65;5.40;;;20.70;58.80;;;;;;5005217;28;20153;-49
2024/03/28 05:26:21;;;;;;;22.98;5.28;;;20.70;58.90;;;;;;5003565;28;20183;-50
2024/03/28 05:28:47;;;;;;;20.25;5.55;;;20.70;58.80;;;;;;5004812;28;20498;-51
2024/03/28 05:31:18;;;;;;;18.17;5.05;;;20.60;58.90;;;;;;5004534;28;20154;-46
2024/03/28 05:33:44;;;;;;;20.42;5.30;;;20.60;59.00;;;;;;5002164;28;20081;-52
2024/03/28 05:36:11;;;;;;;29.30;5.70;;;20.60;59.10;;;;;;4985979;28;20216;-48
2024/03/28 05:38:38;;;;;;;26.60;5.90;;;20.50;59.20;;;;;;5005392;28;20113;-57
2024/03/28 05:41:04;;;;;;;20.98;5.60;;;20.50;59.20;;;;;;5003744;28;20067;-50
2024/03/28 05:43:31;;;;;;;23.83;5.47;;;20.50;59.10;;;;;;5003349;28;20098;-50
2024/03/28 05:45:57;;;;;;;19.85;6.65;;;20.50;59.30;;;;;;5002678;28;20078;-49
2024/03/28 05:48:24;;;;;;;26.70;7.25;;;20.40;59.30;;;;;;5003415;28;20073;-54
2024/03/28 05:50:50;;;;;;;28.60;6.55;;;20.40;59.50;;;;;;5003217;28;20086;-48
2024/03/28 05:53:16;;;;;;;26.08;6.05;;;20.30;59.70;;;;;;4985748;28;20074;-49
2024/03/28 05:55:43;;;;;;;29.83;5.57;;;20.30;59.90;;;;;;4999763;28;20066;-52
2024/03/28 05:58:10;;;;;;;21.33;6.15;;;20.20;60.50;;;;;;4985637;28;20180;-48
2024/03/28 06:00:37;;;;;;;16.95;5.82;;;20.20;61.00;;;;;;5005175;28;20071;-51
2024/03/28 06:03:03;;;;;;;27.48;5.82;;;20.10;61.40;;;;;;5006473;28;20166;-53
2024/03/28 06:05:31;;;;;;;19.63;6.32;;;20.10;61.70;;;;;;4991088;28;20082;-48
2024/03/28 06:07:58;;;;;;;26.10;6.25;;;20.00;62.20;;;;;;5005548;28;20086;-50
2024/03/28 06:10:25;;;;;;;49.38;22.65;;;20.00;62.40;;;;;;5008996;28;20209;-55
2024/03/28 06:12:51;;;;;;;19.15;5.85;;;19.90;62.50;;;;;;5006534;28;20063;-48
2024/03/28 06:15:18;;;;;;;21.90;5.10;;;19.90;63.10;;;;;;5007844;28;20079;-50
2024/03/28 06:17:44;;;;;;;16.45;5.13;;;19.80;63.40;;;;;;5006674;28;20571;-50
2024/03/28 06:20:12;;;;;;;25.60;5.70;;;19.70;63.40;;;;;;5004879;28;20456;-48
2024/03/28 06:22:38;;;;;;;25.10;5.25;;;19.70;63.10;;;;;;4989870;28;20073;-47
2024/03/28 06:25:06;;;;;;;19.80;5.30;;;19.70;63.00;;;;;;5004800;28;20074;-53
2024/03/28 06:27:33;;;;;;;18.90;4.80;;;19.60;63.00;;;;;;5007977;28;20078;-51
2024/03/28 06:29:59;;;;;;;20.13;4.55;;;19.60;63.40;;;;;;5007560;28;20157;-50
2024/03/28 06:32:26;;;;;;;21.33;5.15;;;19.50;63.50;;;;;;5004632;28;20187;-51
2024/03/28 06:34:53;;;;;;;20.42;5.07;;;19.50;63.70;;;;;;5007034;28;20074;-50
2024/03/28 06:37:20;;;;;;;13.02;4.30;;;19.40;64.10;;;;;;5005096;28;20074;-50
2024/03/28 06:39:47;;;;;;;18.55;4.35;;;19.30;65.50;;;;;;5005994;28;20144;-47
2024/03/28 06:42:14;;;;;;;20.17;4.13;;;19.20;65.40;;;;;;5004848;28;20086;-47
2024/03/28 06:44:58;;;;;;;19.00;4.40;;;19.20;65.30;;;;;;5007508;28;20136;-51
2024/03/28 06:47:25;;;;;;;13.77;4.22;;;19.20;65.20;;;;;;5007671;28;20455;-51
2024/03/28 06:49:52;;;;;;;14.43;4.07;;;19.10;66.40;;;;;;5008294;28;20074;-48
2024/03/28 06:52:19;;;;;;;11.00;3.47;;;19.00;66.50;;;;;;5004090;28;20101;-49
2024/03/28 06:54:45;;;;;;;13.30;4.22;;;18.90;66.40;;;;;;5004820;28;20136;-48
2024/03/28 06:57:12;;;;;;;15.48;3.60;;;18.90;66.00;;;;;;5006636;28;20120;-47
2024/03/28 06:59:39;;;;;;;14.68;3.85;;;18.90;66.40;;;;;;5008069;28;20098;-49
2024/03/28 07:02:07;;;;;;;18.20;4.03;;;18.80;66.90;;;;;;5005915;28;20141;-50
2024/03/28 07:04:33;;;;;;;20.05;4.28;;;18.70;66.30;;;;;;5008336;28;20151;-48
2024/03/28 07:07:00;;;;;;;14.82;3.63;;;18.70;66.40;;;;;;5004961;28;20080;-56
2024/03/28 07:09:26;;;;;;;21.08;4.28;;;18.70;67.80;;;;;;5005663;28;20177;-49
2024/03/28 07:11:54;;;;;;;16.58;4.22;;;18.60;67.30;;;;;;5001257;28;20253;-49
2024/03/28 07:14:20;;;;;;;20.45;4.88;;;18.60;67.10;;;;;;4989068;28;20077;-49
2024/03/28 07:16:47;;;;;;;26.13;5.65;;;18.60;67.60;;;;;;5005737;28;20066;-52
2024/03/28 07:19:14;;;;;;;23.85;5.47;;;18.50;67.70;;;;;;5005466;28;20545;-47
2024/03/28 07:21:40;;;;;;;16.00;5.30;;;18.50;67.60;;;;;;5003033;28;20540;-50
2024/03/28 07:24:07;;;;;;;18.88;5.45;;;18.40;68.20;;;;;;5004994;28;20079;-52
2024/03/28 07:26:33;;;;;;;21.67;5.80;;;18.40;68.50;;;;;;5004089;28;20077;-52
2024/03/28 07:29:00;;;;;;;22.40;4.93;;;18.40;68.70;;;;;;5007066;28;20093;-47
2024/03/28 07:31:27;;;;;;;25.58;5.80;;;18.40;68.90;;;;;;5005312;28;20083;-46
2024/03/28 07:33:53;;;;;;;22.60;4.97;;;18.30;69.10;;;;;;5006378;28;20086;-55
2024/03/28 07:36:20;;;;;;;28.58;5.40;;;18.30;70.00;;;;;;5004451;28;20123;-46
2024/03/28 07:38:48;;;;;;;18.13;6.35;;;18.10;70.30;;;;;;5004895;28;20598;-47
2024/03/28 07:41:15;;;;;;;32.00;7.53;;;18.00;71.70;;;;;;5005893;28;20086;-47
2024/03/28 07:43:41;;;;;;;22.73;9.40;;;18.00;71.00;;;;;;5003747;28;20116;-50
2024/03/28 07:46:08;;;;;;;27.13;9.27;;;18.00;71.00;;;;;;5003803;28;20526;-49
2024/03/28 07:48:34;;;;;;;32.17;8.82;;;17.90;71.20;;;;;;5005064;28;20107;-52
2024/03/28 07:51:02;;;;;;;23.65;8.18;;;17.90;70.90;;;;;;5006513;28;20745;-48
2024/03/28 07:53:32;;;;;;;31.67;8.73;;;17.90;70.90;;;;;;5004504;28;20149;-55
2024/03/28 07:55:59;;;;;;;33.85;8.55;;;17.90;70.90;;;;;;5005720;28;20114;-52
2024/03/28 07:58:26;;;;;;;34.35;8.25;;;17.80;71.70;;;;;;5001649;28;20098;-56
2024/03/28 08:00:53;;;;;;;30.58;9.02;;;17.80;72.00;;;;;;5005264;28;20076;-47
2024/03/28 08:03:20;;;;;;;38.78;11.25;;;17.80;71.60;;;;;;5005629;28;20220;-48
2024/03/28 08:05:48;;;;;;;41.83;10.85;;;17.70;72.10;;;;;;5004939;28;20070;-48
2024/03/28 08:08:14;;;;;;;34.05;8.95;;;17.70;71.70;;;;;;4988702;28;20161;-48
2024/03/28 08:10:41;;;;;;;38.65;9.95;;;17.60;71.70;;;;;;5002001;28;20066;-48
2024/03/28 08:13:07;;;;;;;33.55;9.18;;;17.70;71.70;;;;;;5004081;28;20444;-46
2024/03/28 08:15:34;;;;;;;26.75;8.60;;;17.70;71.60;;;;;;5005690;28;20078;-52
2024/03/28 08:18:00;;;;;;;27.90;8.25;;;17.80;71.10;;;;;;5004202;28;20090;-50
2024/03/28 08:20:30;;;;;;;33.28;8.45;;;17.70;72.10;;;;;;5004816;28;20711;-45
2024/03/28 08:22:57;;;;;;;29.80;7.80;;;17.60;72.40;;;;;;5002381;28;20155;-48
2024/03/28 08:25:24;;;;;;;27.75;8.48;;;17.50;72.00;;;;;;5003156;28;20101;-49
2024/03/28 08:27:51;;;;;;;30.83;7.82;;;17.50;72.40;;;;;;5003575;28;20133;-51
2024/03/28 08:30:18;;;;;;;23.73;7.90;;;17.50;73.40;;;;;;5003344;28;20158;-49
2024/03/28 08:32:45;;;;;;;24.35;7.55;;;17.40;73.30;;;;;;5004248;28;20557;-47
2024/03/28 08:35:13;;;;;;;35.75;8.02;;;17.40;73.80;;;;;;5005642;28;20448;-48
2024/03/28 08:37:40;;;;;;;23.30;7.43;;;17.40;73.20;;;;;;5003493;28;20148;-47
2024/03/28 08:40:09;;;;;;;22.80;7.20;;;17.30;73.90;;;;;;5005391;28;20114;-49
2024/03/28 08:42:39;;;;;;;25.90;6.82;;;17.30;73.40;;;;;;4988182;28;20089;-50
2024/03/28 08:45:11;;;;;;;26.30;7.72;;;17.30;73.50;;;;;;4986347;28;20165;-47
2024/03/28 08:47:40;;;;;;;29.02;7.10;;;17.30;73.60;;;;;;4986409;28;20086;-51
2024/03/28 08:50:07;;;;;;;24.40;6.55;;;17.20;75.20;;;;;;5003537;28;20587;-49
2024/03/28 08:52:34;;;;;;;33.63;7.63;;;17.10;75.60;;;;;;5004549;28;20077;-50
2024/03/28 08:55:01;;;;;;;31.65;7.57;;;17.10;74.70;;;;;;5004980;28;20086;-52
2024/03/28 08:57:27;;;;;;;25.80;7.05;;;17.10;74.90;;;;;;5003483;28;20070;-46
2024/03/28 08:59:54;;;;;;;29.52;7.15;;;17.00;74.60;;;;;;5003769;28;20106;-49
2024/03/28 09:02:22;;;;;;;38.05;8.65;;;17.00;74.60;;;;;;5003037;28;20085;-46
2024/03/28 09:04:49;;;;;;;43.67;10.60;;;17.10;75.00;;;;;;5004738;28;20074;-50
2024/03/28 09:07:16;;;;;;;44.30;12.27;;;17.10;74.90;;;;;;5003531;28;20078;-50
2024/03/28 09:09:43;;;;;;;38.97;11.27;;;16.90;74.40;;;;;;5003319;28;21796;-50
2024/03/28 09:12:10;;;;;;;38.10;11.02;;;17.00;75.20;;;;;;5000292;28;20083;-50
2024/03/28 09:14:38;;;;;;;32.45;9.52;;;17.00;75.10;;;;;;5003410;28;20423;-47
2024/03/28 09:17:04;;;;;;;25.23;8.43;;;16.90;75.40;;;;;;5003999;28;20070;-51
2024/03/28 09:19:33;;;;;;;27.30;7.82;;;16.90;75.60;;;;;;5003945;28;20106;-47
2024/03/28 09:21:59;;;;;;;30.70;8.05;;;16.90;75.90;;;;;;4985295;28;20591;-53
2024/03/28 09:24:26;;;;;;;34.20;6.95;;;16.90;76.00;;;;;;5006176;28;20148;-53
2024/03/28 09:26:53;;;;;;;33.55;7.63;;;16.80;76.80;;;;;;5005226;28;20555;-47
2024/03/28 09:29:22;;;;;;;34.92;7.18;;;16.80;77.50;;;;;;5006044;28;20071;-49
2024/03/28 09:31:50;;;;;;;37.90;6.78;;;16.70;77.50;;;;;;5002713;28;20081;-47
2024/03/28 09:34:17;;;;;;;24.17;6.47;;;16.70;77.80;;;;;;5004769;28;20081;-49
2024/03/28 09:36:44;;;;;;;25.83;6.53;;;16.60;79.00;;;;;;5005120;28;20524;-47
2024/03/28 09:39:12;;;;;;;28.70;6.28;;;16.60;79.90;;;;;;5009400;28;20114;-48
2024/03/28 09:41:44;;;;;;;28.80;6.25;;;16.60;81.00;;;;;;5007740;28;20074;-51
2024/03/28 09:44:20;;;;;;;19.10;6.13;;;16.50;81.70;;;;;;4991047;28;20071;-55
2024/03/28 09:46:52;;;;;;;21.40;5.10;;;16.40;82.40;;;;;;5007581;28;20708;-49
2024/03/28 09:49:23;;;;;;;21.35;5.18;;;16.40;83.00;;;;;;5006779;28;20424;-47
2024/03/28 09:51:54;;;;;;;14.63;4.45;;;16.30;83.20;;;;;;5007458;28;20126;-49
2024/03/28 09:54:21;;;;;;;17.05;4.28;;;16.30;83.20;;;;;;5007050;28;20071;-48
2024/03/28 09:56:48;;;;;;;15.00;3.97;;;16.30;84.20;;;;;;5008253;28;20113;-51
2024/03/28 09:59:14;;;;;;;15.35;4.18;;;16.30;84.20;;;;;;5007578;28;20098;-49
2024/03/28 10:01:42;;;;;;;12.57;3.88;;;16.20;84.40;;;;;;5005378;28;20511;-47
2024/03/28 10:04:19;;;;;;;20.00;4.03;;;16.20;84.20;;;;;;5006517;28;20102;-54
2024/03/28 10:06:56;;;;;;;;;;;16.20;84.30;;;;;;5004229;28;20490;-48
2024/03/28 10:09:23;;;;;;;21.97;4.67;;;16.10;84.60;;;;;;5006652;28;19973;-47
2024/03/28 10:11:51;;;;;;;13.73;3.60;;;16.10;84.70;;;;;;5007316;28;20370;-48
2024/03/28 10:14:22;;;;;;;14.02;4.15;;;16.00;85.70;;;;;;5002537;28;20062;-47
2024/03/28 10:16:49;;;;;;;19.20;4.30;;;16.00;85.90;;;;;;4988453;28;20075;-52
2024/03/28 10:19:21;;;;;;;10.43;3.83;;;15.90;86.70;;;;;;5006192;28;20102;-48
2024/03/28 10:21:49;;;;;;;15.30;3.88;;;15.80;86.10;;;;;;5006375;28;20513;-47
2024/03/28 10:24:19;;;;;;;16.23;4.00;;;15.80;88.10;;;;;;5007481;28;20093;-50
2024/03/28 10:26:45;;;;;;;24.10;4.68;;;15.90;87.50;;;;;;5006338;28;20455;-47
2024/03/28 10:29:13;;;;;;;23.00;4.18;;;15.90;87.70;;;;;;4986981;28;20554;-52
2024/03/28 10:31:39;;;;;;;18.15;4.10;;;16.00;87.50;;;;;;5007297;28;20070;-47
2024/03/28 10:34:17;;;;;;;13.45;4.10;;;15.90;87.20;;;;;;5004643;28;20067;-47
2024/03/28 10:36:52;;;;;;;15.88;4.05;;;15.90;87.50;;;;;;5006810;28;20081;-51
2024/03/28 10:39:18;;;;;;;22.67;4.32;;;15.80;87.60;;;;;;5007353;28;20110;-50
2024/03/28 10:41:48;;;;;;;17.42;3.55;;;15.80;87.60;;;;;;5005298;28;20079;-50
2024/03/28 10:44:17;;;;;;;22.83;4.88;;;15.80;88.00;;;;;;4987338;28;20216;-49
2024/03/28 10:46:43;;;;;;;17.35;4.10;;;15.70;88.50;;;;;;5006825;28;20082;-49
2024/03/28 10:49:11;;;;;;;20.05;4.70;;;15.70;89.00;;;;;;5008020;28;20098;-49
2024/03/28 10:51:43;;;;;;;17.45;4.32;;;15.70;89.30;;;;;;5006530;28;20164;-49
2024/03/28 10:54:20;;;;;;;26.70;5.82;;;15.70;89.80;;;;;;5006664;28;20078;-51
2024/03/28 10:56:47;;;;;;;28.10;7.15;;;15.80;89.70;;;;;;5004160;28;20490;-47
2024/03/28 10:59:14;;;;;;;20.65;6.93;;;15.80;90.00;;;;;;5003479;28;20628;-55
2024/03/28 11:01:41;;;;;;;32.90;6.72;;;15.70;90.00;;;;;;5006952;28;20090;-48
2024/03/28 11:04:16;;;;;;;26.42;6.55;;;15.70;90.20;;;;;;5005086;28;20071;-49
2024/03/28 11:06:44;;;;;;;26.60;6.50;;;15.70;90.40;;;;;;5005374;28;20203;-47
2024/03/28 11:09:13;;;;;;;34.30;7.18;;;15.70;90.50;;;;;;5003180;28;20496;-48
2024/03/28 11:11:41;;;;;;;22.95;6.45;;;15.60;90.60;;;;;;5006686;28;20097;-46
2024/03/28 11:14:08;;;;;;;40.50;7.00;;;15.60;90.80;;;;;;4984824;28;20087;-50
2024/03/28 11:16:35;;;;;;;100.32;10.27;;;15.50;91.10;;;;;;5006622;28;20077;-52
2024/03/28 11:19:02;;;;;;;38.50;6.88;;;15.50;91.40;;;;;;4986726;28;20189;-47
2024/03/28 11:21:32;;;;;;;27.38;6.70;;;15.40;91.60;;;;;;5005454;28;20142;-49
2024/03/28 11:23:59;;;;;;;24.75;6.05;;;15.30;91.70;;;;;;5004548;28;20070;-52
2024/03/28 11:26:26;;;;;;;31.63;6.97;;;15.40;91.90;;;;;;4983643;28;20428;-52
2024/03/28 11:29:08;;;;;;;24.52;6.78;;;15.50;92.10;;;;;;5004333;28;20173;-52
2024/03/28 11:31:35;;;;;;;22.02;5.97;;;15.40;92.40;;;;;;5004925;28;20173;-47
2024/03/28 11:34:03;;;;;;;20.75;6.28;;;15.30;92.30;;;;;;4987805;28;20539;-48
2024/03/28 11:36:31;;;;;;;25.92;6.63;;;15.30;92.40;;;;;;5002824;28;20079;-46
2024/03/28 11:38:58;;;;;;;29.00;6.07;;;15.30;93.20;;;;;;5004945;28;20130;-60
2024/03/28 11:41:26;;;;;;;21.45;5.97;;;15.30;93.20;;;;;;5005791;28;20067;-52
2024/03/28 11:43:54;;;;;;;19.90;6.22;;;15.60;93.00;;;;;;5006013;28;20082;-62
2024/03/28 11:46:26;;;;;;;19.35;5.57;;;15.60;92.50;;;;;;5005542;28;20551;-58
2024/03/28 11:48:58;;;;;;;17.13;5.40;;;15.70;92.70;;;;;;5003382;28;20074;-59
2024/03/28 11:51:24;;;;;;;20.92;5.55;;;15.90;92.70;;;;;;5006260;28;20104;-57
2024/03/28 11:53:53;;;;;;;26.88;6.50;;;16.20;91.70;;;;;;5004607;28;20070;-56
2024/03/28 11:56:23;;;;;;;31.48;6.88;;;16.10;91.60;;;;;;5005170;28;20105;-58
2024/03/28 11:58:49;;;;;;;30.17;6.40;;;15.90;91.80;;;;;;5005348;28;20130;-59
2024/03/28 12:01:18;;;;;;;21.33;6.07;;;15.70;92.30;;;;;;4987620;28;20100;-58
2024/03/28 12:03:46;;;;;;;22.55;6.90;;;15.60;92.50;;;;;;5004416;28;20098;-56
2024/03/28 12:06:13;;;;;;;23.52;6.40;;;15.60;92.80;;;;;;5003776;28;20101;-58
2024/03/28 12:08:40;;;;;;;22.27;6.32;;;15.60;93.00;;;;;;5002751;28;20082;-58
2024/03/28 12:11:08;;;;;;;39.58;6.57;;;15.70;92.90;;;;;;5005421;28;20657;-58
2024/03/28 12:13:36;;;;;;;24.15;6.15;;;15.70;92.90;;;;;;5003473;28;20125;-59
2024/03/28 12:16:07;;;;;;;22.98;6.28;;;16.10;92.30;;;;;;5003653;28;20070;-62
2024/03/28 12:18:41;;;;;;;25.80;6.30;;;16.00;92.50;;;;;;5005337;28;20201;-59
2024/03/28 12:21:11;;;;;;;23.92;6.13;;;16.10;91.80;;;;;;5004556;28;20073;-61
2024/03/28 12:23:38;;;;;;;36.85;6.95;;;16.00;92.10;;;;;;4986808;28;20071;-56
2024/03/28 12:26:04;;;;;;;80.93;9.18;;;15.90;92.30;;;;;;5004780;28;20086;-57
2024/03/28 12:28:31;;;;;;;28.35;7.07;;;15.90;92.80;;;;;;5004156;28;20157;-57
2024/03/28 12:31:02;;;;;;;22.02;6.43;;;15.80;92.80;;;;;;5006183;28;20074;-57
2024/03/28 12:33:28;;;;;;;31.08;6.60;;;16.00;92.30;;;;;;4986126;28;20478;-57
2024/03/28 12:35:57;;;;;;;25.95;6.85;;;16.00;92.30;;;;;;5006261;28;20140;-58
2024/03/28 12:38:24;;;;;;;21.83;7.45;;;15.90;92.40;;;;;;5004422;28;20563;-59
2024/03/28 12:40:52;;;;;;;32.97;7.60;;;16.00;92.40;;;;;;5002651;28;20081;-56
2024/03/28 12:43:21;;;;;;;22.02;7.10;;;16.00;92.90;;;;;;4983328;28;20075;-56
2024/03/28 12:46:04;;;;;;;61.63;24.23;;;15.90;92.70;;;;;;5003065;28;20417;-58
2024/03/28 12:48:32;;;;;;;38.42;8.00;;;15.80;93.00;;;;;;4987801;28;20078;-57